createdAt,value
2019-05-20T00:00:40.461Z,4.78
2019-05-20T00:03:08.518Z,4.90
2019-05-20T00:05:36.649Z,4.28
2019-05-20T00:08:04.655Z,4.62
2019-05-20T00:10:33.474Z,4.68
2019-05-20T00:13:01.534Z,4.93
2019-05-20T00:15:29.565Z,5.00
2019-05-20T00:17:57.594Z,5.03
2019-05-20T00:20:25.736Z,4.72
2019-05-20T00:22:53.761Z,4.90
2019-05-20T00:25:21.878Z,5.15
2019-05-20T00:27:49.901Z,5.37
2019-05-20T00:30:17.944Z,5.62
2019-05-20T00:32:45.977Z,5.57
2019-05-20T00:35:14.870Z,5.60
2019-05-20T00:37:42.921Z,6.10
2019-05-20T00:40:11.161Z,5.60
2019-05-20T00:42:39.097Z,5.85
2019-05-20T00:45:07.165Z,6.03
2019-05-20T00:47:35.227Z,6.10
2019-05-20T00:50:04.038Z,6.00
2019-05-20T00:52:32.066Z,6.68
2019-05-20T00:55:00.150Z,6.70
2019-05-20T00:57:28.185Z,6.40
2019-05-20T00:59:56.293Z,6.67
2019-05-20T01:02:24.356Z,6.95
2019-05-20T01:04:53.142Z,6.73
2019-05-20T01:07:21.941Z,6.82
2019-05-20T01:09:50.749Z,7.03
2019-05-20T01:12:18.802Z,7.30
2019-05-20T01:14:47.726Z,7.40
2019-05-20T01:17:15.753Z,7.10
2019-05-20T01:19:43.810Z,7.07
2019-05-20T01:22:12.664Z,7.65
2019-05-20T01:24:40.705Z,7.80
2019-05-20T01:27:08.739Z,7.22
2019-05-20T01:29:38.367Z,7.85
2019-05-20T01:32:06.445Z,7.22
2019-05-20T01:34:34.494Z,7.30
2019-05-20T01:37:03.397Z,7.50
2019-05-20T01:39:31.509Z,7.57
2019-05-20T01:41:59.521Z,8.07
2019-05-20T01:44:28.658Z,8.27
2019-05-20T01:46:56.698Z,8.27
2019-05-20T01:49:25.491Z,8.47
2019-05-20T01:51:53.529Z,8.23
2019-05-20T01:54:21.632Z,9.00
2019-05-20T01:56:49.675Z,8.55
2019-05-20T01:59:18.486Z,9.80
2019-05-20T02:01:46.565Z,9.05
2019-05-20T02:04:14.622Z,8.90
2019-05-20T02:06:42.676Z,9.15
2019-05-20T02:09:11.482Z,9.15
2019-05-20T02:11:40.394Z,9.60
2019-05-20T02:14:08.450Z,8.98
2019-05-20T02:16:36.517Z,9.20
2019-05-20T02:19:04.586Z,9.25
2019-05-20T02:21:32.651Z,9.52
2019-05-20T02:24:01.473Z,9.23
2019-05-20T02:26:29.513Z,9.90
2019-05-20T02:28:57.585Z,9.93
2019-05-20T02:31:25.646Z,10.20
2019-05-20T02:33:54.454Z,10.15
2019-05-20T02:36:22.539Z,9.93
2019-05-20T02:38:50.594Z,10.50
2019-05-20T02:41:19.374Z,10.03
2019-05-20T02:43:47.446Z,10.50
2019-05-20T02:46:15.539Z,10.23
2019-05-20T02:48:43.592Z,10.38
2019-05-20T02:51:11.675Z,10.30
2019-05-20T02:53:39.738Z,10.15
2019-05-20T02:56:07.785Z,10.55
2019-05-20T02:58:36.715Z,10.98
2019-05-20T03:01:04.776Z,11.05
2019-05-20T03:03:32.823Z,11.48
2019-05-20T03:06:01.640Z,11.35
2019-05-20T03:08:29.671Z,10.93
2019-05-20T03:10:57.718Z,10.98
2019-05-20T03:13:27.395Z,11.20
2019-05-20T03:15:55.450Z,11.20
2019-05-20T03:18:23.502Z,11.77
2019-05-20T03:20:51.564Z,11.80
2019-05-20T03:23:20.412Z,11.30
2019-05-20T03:25:48.445Z,11.23
2019-05-20T03:28:16.612Z,12.13
2019-05-20T03:30:45.423Z,11.52
2019-05-20T03:33:13.586Z,11.73
2019-05-20T03:35:41.659Z,12.60
2019-05-20T03:38:09.705Z,11.77
2019-05-20T03:40:37.742Z,12.20
2019-05-20T03:43:05.877Z,11.65
2019-05-20T03:45:33.942Z,12.43
2019-05-20T03:48:01.985Z,12.60
2019-05-20T03:50:30.069Z,13.05
2019-05-20T03:52:58.163Z,11.70
2019-05-20T03:55:26.299Z,12.10
2019-05-20T03:57:54.374Z,12.10
2019-05-20T04:03:24.645Z,11.73
2019-05-20T04:05:53.403Z,11.77
2019-05-20T04:08:21.492Z,11.65
2019-05-20T04:10:49.545Z,11.77
2019-05-20T04:13:17.608Z,11.80
2019-05-20T04:15:45.611Z,10.90
2019-05-20T04:18:13.778Z,10.93
2019-05-20T04:20:42.034Z,10.68
2019-05-20T04:23:10.090Z,11.07
2019-05-20T04:25:38.129Z,10.63
2019-05-20T04:28:06.173Z,11.15
2019-05-20T04:30:34.309Z,11.07
2019-05-20T04:33:02.384Z,10.93
2019-05-20T04:35:30.463Z,10.73
2019-05-20T04:37:58.637Z,10.65
2019-05-20T04:40:26.695Z,10.50
2019-05-20T04:42:54.795Z,10.55
2019-05-20T04:45:22.819Z,10.97
2019-05-20T04:47:51.643Z,9.80
2019-05-20T04:50:19.707Z,9.85
2019-05-20T04:52:47.761Z,10.10
2019-05-20T04:55:15.872Z,10.23
2019-05-20T04:57:43.895Z,10.25
2019-05-20T05:00:11.970Z,10.23
2019-05-20T05:02:43.372Z,10.23
2019-05-20T05:05:08.039Z,10.53
2019-05-20T05:07:36.081Z,11.10
2019-05-20T05:10:04.958Z,11.00
2019-05-20T05:12:33.834Z,10.50
2019-05-20T05:15:02.112Z,11.10
2019-05-20T05:17:29.985Z,10.93
2019-05-20T05:19:58.914Z,11.00
2019-05-20T05:22:26.982Z,10.82
2019-05-20T05:24:55.065Z,10.20
2019-05-20T05:27:23.099Z,10.77
2019-05-20T05:29:51.118Z,10.77
2019-05-20T05:32:19.182Z,10.73
2019-05-20T05:34:47.215Z,10.50
2019-05-20T05:37:15.309Z,10.90
2019-05-20T05:39:43.466Z,10.30
2019-05-20T05:42:11.526Z,10.77
2019-05-20T05:44:39.841Z,10.52
2019-05-20T05:47:07.985Z,11.15
2019-05-20T05:49:36.034Z,10.90
2019-05-20T05:52:04.978Z,11.05
2019-05-20T05:54:33.106Z,11.07
2019-05-20T05:57:01.153Z,11.20
2019-05-20T05:59:29.967Z,11.00
2019-05-20T06:01:58.045Z,10.70
2019-05-20T06:04:27.450Z,10.80
2019-05-20T06:06:55.515Z,10.82
2019-05-20T06:09:23.590Z,11.00
2019-05-20T06:11:51.649Z,11.07
2019-05-20T06:14:19.734Z,11.25
2019-05-20T06:16:48.506Z,11.07
2019-05-20T06:19:16.638Z,10.90
2019-05-20T06:21:44.639Z,10.32
2019-05-20T06:24:13.475Z,10.88
2019-05-20T06:26:41.609Z,10.80
2019-05-20T06:29:09.705Z,10.75
2019-05-20T06:31:37.741Z,11.10
2019-05-20T06:34:05.806Z,10.32
2019-05-20T06:36:34.637Z,10.20
2019-05-20T06:39:12.162Z,9.65
2019-05-20T06:41:40.282Z,9.98
2019-05-20T06:44:08.341Z,9.55
2019-05-20T06:46:36.433Z,9.48
2019-05-20T06:49:05.313Z,9.60
2019-05-20T06:51:33.361Z,9.57
2019-05-20T06:54:01.371Z,9.50
2019-05-20T06:56:29.547Z,9.57
2019-05-20T06:58:58.306Z,8.70
2019-05-20T07:01:26.354Z,8.88
2019-05-20T07:03:55.182Z,8.45
2019-05-20T07:06:23.261Z,8.73
2019-05-20T07:08:51.309Z,8.13
2019-05-20T07:11:19.357Z,9.10
2019-05-20T07:13:48.176Z,8.43
2019-05-20T07:16:16.182Z,8.87
2019-05-20T07:18:44.218Z,8.45
2019-05-20T07:21:12.265Z,8.67
2019-05-20T07:23:40.334Z,8.57
2019-05-20T07:26:08.443Z,8.98
2019-05-20T07:28:36.493Z,8.80
2019-05-20T07:31:04.569Z,9.98
2019-05-20T07:33:32.622Z,9.70
2019-05-20T07:36:00.716Z,10.13
2019-05-20T07:38:28.778Z,9.35
2019-05-20T07:40:56.816Z,9.05
2019-05-20T07:43:24.907Z,9.25
2019-05-20T07:45:52.979Z,9.30
2019-05-20T07:48:21.766Z,9.80
2019-05-20T07:50:49.833Z,10.07
2019-05-20T07:53:17.873Z,9.35
2019-05-20T07:55:54.283Z,10.07
2019-05-20T07:58:22.338Z,9.63
2019-05-20T08:00:50.434Z,9.75
2019-05-20T08:03:18.482Z,9.95
2019-05-20T08:05:46.551Z,9.90
2019-05-20T08:08:14.660Z,10.10
2019-05-20T08:10:42.798Z,10.93
2019-05-20T08:13:10.880Z,10.70
2019-05-20T08:15:38.926Z,10.45
2019-05-20T08:18:07.007Z,10.77
2019-05-20T08:20:35.797Z,11.12
2019-05-20T08:23:03.875Z,12.15
2019-05-20T08:25:31.922Z,12.13
2019-05-20T08:28:00.834Z,12.00
2019-05-20T08:30:28.899Z,11.68
2019-05-20T08:32:56.957Z,12.75
2019-05-20T08:35:25.025Z,12.77
2019-05-20T08:37:53.115Z,12.82
2019-05-20T08:40:21.156Z,13.25
2019-05-20T08:42:49.965Z,13.32
2019-05-20T08:45:18.006Z,12.73
2019-05-20T08:47:46.846Z,13.43
2019-05-20T08:50:16.372Z,13.52
2019-05-20T08:52:43.092Z,14.13
2019-05-20T08:55:11.166Z,12.82
2019-05-20T08:57:39.224Z,12.90
2019-05-20T09:00:07.297Z,13.00
2019-05-20T09:02:35.993Z,12.93
2019-05-20T09:05:04.064Z,13.35
2019-05-20T09:07:32.105Z,13.73
2019-05-20T09:10:00.179Z,14.00
2019-05-20T09:12:29.085Z,13.83
2019-05-20T09:14:57.116Z,13.30
2019-05-20T09:17:26.028Z,14.10
2019-05-20T09:19:54.103Z,13.27
2019-05-20T09:22:22.179Z,13.88
2019-05-20T09:24:50.899Z,14.45
2019-05-20T09:27:18.744Z,14.47
2019-05-20T09:29:47.331Z,14.87
2019-05-20T09:32:15.393Z,14.13
2019-05-20T09:34:43.430Z,14.73
2019-05-20T09:37:11.527Z,14.50
2019-05-20T09:39:39.587Z,15.57
2019-05-20T09:42:07.666Z,14.85
2019-05-20T09:44:35.743Z,15.10
2019-05-20T09:47:04.619Z,14.40
2019-05-20T09:49:32.719Z,15.00
2019-05-20T09:52:00.792Z,15.32
2019-05-20T09:54:28.821Z,13.85
2019-05-20T09:56:56.890Z,14.15
2019-05-20T09:59:25.087Z,14.20
2019-05-20T10:01:53.860Z,14.43
2019-05-20T10:04:21.916Z,14.70
2019-05-20T10:06:49.959Z,14.68
2019-05-20T10:09:18.086Z,14.73
2019-05-20T10:11:46.126Z,15.27
2019-05-20T10:14:14.940Z,15.20
2019-05-20T10:16:43.019Z,15.80
2019-05-20T10:19:11.090Z,16.00
2019-05-20T10:21:39.162Z,16.08
2019-05-20T10:24:07.177Z,15.60
2019-05-20T10:26:36.021Z,16.83
2019-05-20T10:29:04.086Z,17.45
2019-05-20T10:31:32.148Z,17.90
2019-05-20T10:34:00.937Z,17.75
2019-05-20T10:36:29.709Z,18.60
2019-05-20T10:38:59.550Z,18.02
2019-05-20T10:41:29.484Z,19.55
2019-05-20T10:43:54.889Z,19.05
2019-05-20T10:46:22.927Z,19.58
2019-05-20T10:48:50.991Z,19.73
2019-05-20T10:51:19.032Z,21.37
2019-05-20T10:53:47.157Z,19.92
2019-05-20T10:56:15.683Z,20.33
2019-05-20T10:58:44.234Z,20.33
2019-05-20T11:01:12.579Z,20.43
2019-05-20T11:03:40.659Z,20.52
2019-05-20T11:06:08.726Z,20.93
2019-05-20T11:08:36.777Z,20.45
2019-05-20T11:11:04.875Z,21.15
2019-05-20T11:13:32.894Z,21.95
2019-05-20T11:16:01.823Z,21.30
2019-05-20T11:18:29.897Z,21.25
2019-05-20T11:20:58.678Z,21.90
2019-05-20T11:23:26.750Z,22.10
2019-05-20T11:25:54.817Z,21.20
2019-05-20T11:28:22.885Z,22.05
2019-05-20T11:30:50.934Z,22.30
2019-05-20T11:33:19.742Z,23.77
2019-05-20T11:35:47.826Z,23.20
2019-05-20T11:38:16.601Z,24.23
2019-05-20T11:40:44.681Z,24.25
2019-05-20T11:43:12.730Z,24.92
2019-05-20T11:45:40.816Z,25.62
2019-05-20T11:48:08.895Z,26.10
2019-05-20T11:50:36.950Z,27.83
2019-05-20T11:53:05.062Z,26.87
2019-05-20T11:55:33.105Z,27.92
2019-05-20T11:58:14.392Z,28.40
2019-05-20T12:00:29.250Z,27.87
2019-05-20T12:02:57.307Z,27.50
2019-05-20T12:05:25.384Z,28.80
2019-05-20T12:07:53.418Z,30.50
2019-05-20T12:10:22.226Z,31.75
2019-05-20T12:12:50.370Z,30.80
2019-05-20T12:15:18.459Z,10.85
2019-05-20T12:17:47.252Z,4.20
2019-05-20T12:20:16.144Z,3.80
2019-05-20T12:22:44.213Z,3.87
2019-05-20T12:25:12.282Z,2.97
2019-05-20T12:27:41.095Z,2.95
2019-05-20T12:30:09.164Z,3.22
2019-05-20T12:32:37.225Z,4.07
2019-05-20T12:35:05.286Z,4.78
2019-05-20T12:37:33.354Z,5.70
2019-05-20T12:40:06.995Z,8.30
2019-05-20T12:42:29.502Z,10.43
2019-05-20T12:44:58.281Z,12.43
2019-05-20T12:47:26.393Z,13.23
2019-05-20T12:49:54.429Z,10.88
2019-05-20T12:52:22.498Z,9.52
2019-05-20T12:55:06.172Z,10.00
2019-05-20T12:57:19.558Z,10.95
2019-05-20T12:59:48.346Z,10.70
2019-05-20T13:02:17.442Z,10.75
2019-05-20T13:04:45.215Z,10.50
2019-05-20T13:07:13.314Z,10.55
2019-05-20T13:09:41.442Z,8.93
2019-05-20T13:12:09.635Z,9.55
2019-05-20T13:14:37.598Z,10.43
2019-05-20T13:17:05.638Z,11.02
2019-05-20T13:19:33.730Z,12.13
2019-05-20T13:22:01.778Z,12.63
2019-05-20T13:24:30.691Z,13.85
2019-05-20T13:26:58.833Z,14.25
2019-05-20T13:29:26.940Z,15.55
2019-05-20T13:31:55.001Z,15.52
2019-05-20T13:34:23.062Z,15.35
2019-05-20T13:36:51.971Z,16.50
2019-05-20T13:39:20.047Z,15.88
2019-05-20T13:41:48.110Z,16.20
2019-05-20T13:44:16.189Z,14.48
2019-05-20T13:46:44.246Z,16.37
2019-05-20T13:49:12.314Z,15.18
2019-05-20T13:51:40.381Z,12.52
2019-05-20T13:54:08.582Z,13.40
2019-05-20T13:56:37.370Z,12.70
2019-05-20T13:59:05.426Z,13.18
2019-05-20T14:01:33.473Z,12.55
2019-05-20T14:04:02.386Z,10.77
2019-05-20T14:06:30.535Z,9.05
2019-05-20T14:08:58.557Z,8.70
2019-05-20T14:11:34.562Z,7.68
2019-05-20T14:13:54.767Z,7.80
2019-05-20T14:16:22.835Z,8.07
2019-05-20T14:18:50.858Z,8.60
2019-05-20T14:21:18.876Z,6.43
2019-05-20T14:23:47.787Z,6.75
2019-05-20T14:26:15.814Z,7.22
2019-05-20T14:28:44.641Z,6.87
2019-05-20T14:31:12.681Z,6.80
2019-05-20T14:33:41.473Z,6.80
2019-05-20T14:36:10.355Z,6.50
2019-05-20T14:38:39.275Z,5.70
2019-05-20T14:41:21.178Z,5.50
2019-05-20T14:43:35.420Z,3.75
2019-05-20T14:46:03.439Z,4.05
2019-05-20T14:48:31.542Z,4.30
2019-05-20T14:50:59.578Z,4.53
2019-05-20T14:53:27.585Z,4.73
2019-05-20T14:55:55.622Z,5.20
2019-05-20T14:58:23.633Z,5.27
2019-05-20T15:00:51.691Z,6.00
2019-05-20T15:03:20.573Z,6.40
2019-05-20T15:05:49.379Z,6.78
2019-05-20T15:08:16.791Z,7.43
2019-05-20T15:10:44.887Z,8.00
2019-05-20T15:13:12.930Z,8.40
2019-05-20T15:15:41.034Z,9.27
2019-05-20T15:18:09.154Z,9.63
2019-05-20T15:20:37.273Z,10.23
2019-05-20T15:23:05.334Z,14.23
2019-05-20T15:25:34.188Z,18.27
2019-05-20T15:28:02.226Z,20.30
2019-05-20T15:30:30.273Z,18.80
2019-05-20T15:32:58.401Z,17.48
2019-05-20T15:35:26.454Z,14.55
2019-05-20T15:37:54.691Z,13.98
2019-05-20T15:40:24.294Z,13.07
2019-05-20T15:42:50.859Z,13.40
2019-05-20T15:45:18.877Z,13.60
2019-05-20T15:47:47.848Z,13.55
2019-05-20T15:50:15.961Z,13.02
2019-05-20T15:52:44.106Z,12.70
2019-05-20T15:55:12.218Z,12.95
2019-05-20T15:57:40.373Z,12.98
2019-05-20T16:00:08.418Z,15.35
2019-05-20T16:02:36.523Z,12.35
2019-05-20T16:05:04.574Z,14.73
2019-05-20T16:07:33.432Z,14.55
2019-05-20T16:10:01.467Z,14.93
2019-05-20T16:12:34.024Z,14.38
2019-05-20T16:14:58.525Z,15.38
2019-05-20T16:17:26.709Z,14.60
2019-05-20T16:19:54.798Z,15.05
2019-05-20T16:22:24.241Z,15.87
2019-05-20T16:24:53.156Z,16.90
2019-05-20T16:27:21.297Z,17.17
2019-05-20T16:30:05.360Z,17.90
2019-05-20T16:32:18.223Z,18.40
2019-05-20T16:34:46.253Z,21.15
2019-05-20T16:37:14.326Z,19.98
2019-05-20T16:39:43.114Z,20.97
2019-05-20T16:42:11.171Z,21.73
2019-05-20T16:44:39.975Z,23.02
2019-05-20T16:47:08.037Z,24.45
2019-05-20T16:49:36.112Z,25.17
2019-05-20T16:52:04.185Z,24.92
2019-05-20T16:54:32.266Z,25.75
2019-05-20T16:57:00.301Z,26.30
2019-05-20T16:59:28.418Z,26.33
2019-05-20T17:01:56.583Z,27.80
2019-05-20T17:04:24.667Z,27.83
2019-05-20T17:06:52.713Z,27.13
2019-05-20T17:09:20.777Z,28.17
2019-05-20T17:11:49.562Z,28.73
2019-05-20T17:14:17.652Z,29.20
2019-05-20T17:16:45.686Z,28.87
2019-05-20T17:19:14.534Z,28.92
2019-05-20T17:21:42.606Z,28.60
2019-05-20T17:24:10.663Z,28.20
2019-05-20T17:26:38.802Z,28.40
2019-05-20T17:29:06.855Z,28.20
2019-05-20T17:31:34.946Z,29.35
2019-05-20T17:34:03.021Z,30.58
2019-05-20T17:36:31.098Z,31.52
2019-05-20T17:38:59.278Z,32.60
2019-05-20T17:41:28.100Z,35.03
2019-05-20T17:43:56.170Z,34.53
2019-05-20T17:46:24.289Z,33.05
2019-05-20T17:48:52.334Z,34.13
2019-05-20T17:51:21.137Z,32.53
2019-05-20T17:53:50.755Z,31.77
2019-05-20T17:56:18.822Z,32.13
2019-05-20T17:58:46.898Z,32.13
2019-05-20T18:01:16.204Z,31.37
2019-05-20T18:03:43.159Z,31.65
2019-05-20T18:06:11.181Z,33.95
2019-05-20T18:08:39.227Z,35.00
2019-05-20T18:11:07.261Z,34.90
2019-05-20T18:13:35.306Z,33.83
2019-05-20T18:16:04.206Z,35.55
2019-05-20T18:18:32.281Z,34.22
2019-05-20T18:21:00.321Z,32.58
2019-05-20T18:23:28.462Z,34.22
2019-05-20T18:25:56.646Z,34.35
2019-05-20T18:28:24.772Z,32.17
2019-05-20T18:30:52.858Z,31.50
2019-05-20T18:33:20.893Z,32.65
2019-05-20T18:35:49.853Z,27.90
2019-05-20T18:38:17.881Z,27.27
2019-05-20T18:40:45.944Z,27.60
2019-05-20T18:43:14.778Z,26.47
2019-05-20T18:45:42.837Z,25.55
2019-05-20T18:48:10.965Z,20.92
2019-05-20T18:50:39.045Z,23.50
2019-05-20T18:53:07.123Z,16.10
2019-05-20T18:55:35.221Z,14.18
2019-05-20T18:58:03.396Z,17.15
2019-05-20T19:00:32.245Z,10.37
2019-05-20T19:03:00.289Z,9.77
2019-05-20T19:05:28.301Z,9.30
2019-05-20T19:07:56.345Z,13.70
2019-05-20T19:10:24.393Z,14.02
2019-05-20T19:12:52.497Z,12.68
2019-05-20T19:15:20.601Z,15.30
2019-05-20T19:17:48.681Z,19.20
2019-05-20T19:20:16.811Z,19.50
2019-05-20T19:22:44.891Z,20.23
2019-05-20T19:25:12.945Z,21.12
2019-05-20T19:27:40.985Z,20.83
2019-05-20T19:30:09.142Z,22.00
2019-05-20T19:32:37.291Z,23.12
2019-05-20T19:35:05.439Z,24.40
2019-05-20T19:37:33.498Z,24.50
2019-05-20T19:40:02.826Z,24.17
2019-05-20T19:42:30.781Z,24.90
2019-05-20T19:44:58.955Z,24.60
2019-05-20T19:47:27.013Z,25.33
2019-05-20T19:49:55.065Z,26.55
2019-05-20T19:52:23.885Z,26.27
2019-05-20T19:54:51.956Z,27.13
2019-05-20T19:57:20.040Z,27.15
2019-05-20T19:59:48.189Z,24.33
2019-05-20T20:02:19.120Z,24.97
2019-05-20T20:04:48.037Z,25.55
2019-05-20T20:07:16.817Z,20.70
2019-05-20T20:09:44.881Z,19.58
2019-05-20T20:12:12.960Z,15.40
2019-05-20T20:14:41.027Z,15.05
2019-05-20T20:17:09.111Z,14.65
2019-05-20T20:19:37.156Z,13.55
2019-05-20T20:22:05.245Z,14.73
2019-05-20T20:24:33.329Z,16.20
2019-05-20T20:27:01.378Z,17.48
2019-05-20T20:29:29.425Z,20.60
2019-05-20T20:31:58.335Z,22.10
2019-05-20T20:34:26.417Z,21.55
2019-05-20T20:36:54.470Z,20.88
2019-05-20T20:39:22.561Z,20.77
2019-05-20T20:41:51.425Z,19.97
2019-05-20T20:44:19.501Z,17.87
2019-05-20T20:46:48.391Z,16.97
2019-05-20T20:49:16.468Z,16.50
2019-05-20T20:51:45.349Z,16.87
2019-05-20T20:54:13.421Z,15.73
2019-05-20T20:56:42.217Z,13.77
2019-05-20T20:59:10.266Z,15.02
2019-05-20T21:01:39.077Z,14.07
2019-05-20T21:04:07.124Z,14.55
2019-05-20T21:06:35.236Z,13.32
2019-05-20T21:09:03.269Z,14.00
2019-05-20T21:11:32.092Z,15.07
2019-05-20T21:14:00.137Z,14.65
2019-05-20T21:16:28.211Z,14.63
2019-05-20T21:18:56.270Z,15.02
2019-05-20T21:21:24.346Z,15.70
2019-05-20T21:23:52.413Z,15.95
2019-05-20T21:26:21.222Z,16.48
2019-05-20T21:28:49.278Z,16.42
2019-05-20T21:31:17.351Z,16.67
2019-05-20T21:33:45.418Z,17.50
2019-05-20T21:36:13.475Z,18.48
2019-05-20T21:38:42.289Z,19.15
2019-05-20T21:41:10.449Z,20.23
2019-05-20T21:43:38.570Z,22.67
2019-05-20T21:46:06.612Z,23.90
2019-05-20T21:48:34.670Z,24.30
2019-05-20T21:51:02.730Z,24.27
2019-05-20T21:53:30.780Z,24.30
2019-05-20T21:55:59.589Z,24.63
2019-05-20T21:58:27.667Z,24.80
2019-05-20T22:00:55.722Z,23.98
2019-05-20T22:03:25.354Z,24.35
2019-05-20T22:05:52.715Z,22.10
2019-05-20T22:08:20.782Z,21.58
2019-05-20T22:10:48.850Z,22.65
2019-05-20T22:13:16.897Z,21.55
2019-05-20T22:15:44.977Z,21.45
2019-05-20T22:18:13.059Z,21.87
2019-05-20T22:20:41.094Z,22.08
2019-05-20T22:23:28.834Z,21.27
2019-05-20T22:25:57.645Z,21.90
2019-05-20T22:28:26.543Z,22.10
2019-05-20T22:30:54.597Z,22.23
2019-05-20T22:33:22.645Z,23.52
2019-05-20T22:35:51.548Z,23.62
2019-05-20T22:38:19.629Z,23.17
2019-05-20T22:40:47.689Z,21.80
2019-05-20T22:43:15.786Z,20.75
2019-05-20T22:45:44.965Z,21.73
2019-05-20T22:48:13.029Z,19.58
2019-05-20T22:50:41.109Z,21.48
2019-05-20T22:53:09.936Z,20.33
2019-05-20T22:55:37.993Z,20.58
2019-05-20T22:58:06.057Z,19.10
2019-05-20T23:00:34.203Z,18.48
2019-05-20T23:03:02.284Z,16.40
2019-05-20T23:05:30.371Z,11.95
2019-05-20T23:07:58.415Z,11.73
2019-05-20T23:10:26.522Z,11.95
2019-05-20T23:12:54.581Z,13.82
2019-05-20T23:15:22.617Z,14.57
2019-05-20T23:17:50.661Z,14.10
2019-05-20T23:20:18.812Z,13.73
2019-05-20T23:22:46.867Z,13.38
2019-05-20T23:25:14.908Z,13.20
2019-05-20T23:27:42.987Z,12.85
2019-05-20T23:30:11.065Z,13.00
2019-05-20T23:32:39.118Z,12.48
2019-05-20T23:35:07.893Z,12.80
2019-05-20T23:37:35.969Z,12.82
2019-05-20T23:40:04.776Z,12.18
2019-05-20T23:42:32.817Z,12.18
2019-05-20T23:45:01.634Z,12.00
2019-05-20T23:47:29.705Z,13.02
2019-05-20T23:49:57.773Z,12.90
2019-05-20T23:52:26.551Z,13.60
2019-05-20T23:54:54.597Z,13.62
2019-05-20T23:57:23.544Z,13.27
2019-05-20T23:59:51.580Z,13.93
